Ambleve, Belgium
Current Conditions -  °F | °C
As of 1:35 AM on Saturday 25 Oct 2014 (Local Time) from EBLB Reporting Station
Broken Clouds Broken Clouds  
Wind Chill:   Ceiling: 1100
Heat Index:   Visibility: 2.1mi
Dew Point:   Wind: 6mph
Humidity: 93%   Direction: 210°SSW
Pressure: 30.06"   Gusts: NA
Location:  50.35°N, 6.17°E
Report Text: EBLB 242335Z AUTO 21005KT 3400 SCT009/// BKN011/// BKN020/// 07/06 Q1018 YLO
Loading
Personal Weather Stations






























Interactive Weather Map
Tropical Storm Tracking
New forecast layout! Learn more

10-Day Weather Forecast

Advertisements
Track Severe Weather on mobile